Latest Weather Observations for Archerfield

IDQ60801

Issued at 1:35 pm EST Friday 19 September 2014 (issued every 30 minutes, with the page automatically refreshed every 10 minutes)

About weather observations | Map of weather stations | Latest weather observations for QLD | Other Formats
Station Details ID: 040211 Name: ARCHERFIELD AIRPORT Lat: -27.57 Lon: 153.01 Height: 12.5 m
Data from the previous 72 hours. | See also: Recent months at Archerfield
Date/Time
EST
Temp
°C
App
Temp
°C
Dew
Point
Rel
Hum
%
Delta-T
°C
Wind Press
QNH
hPa
Press
MSL
hPa
Rain
since 9 am
mm
Dir
 
Spd
km/h
Gust
km/h
Spd
kts
Gust
kts
19/01:30pm 24.8 21.6 7.0 32 9.3 NNW 13 20 7 11 1016.8 1016.7 0.0
19/01:00pm 24.9 22.0 6.6 31 9.5 N 11 20 6 11 1017.6 1017.5 0.0
19/12:30pm 24.4 21.5 6.6 32 9.2 W 11 15 6 8 1018.3 1018.2 0.0
19/12:00pm 24.2 21.2 7.8 35 8.6 NE 13 20 7 11 1018.7 1018.6 0.0
19/11:30am 23.9 19.8 7.9 36 8.5 NNE 19 24 10 13 1019.3 1019.2 0.0
19/11:00am 23.7 20.4 9.7 41 7.6 NW 17 22 9 12 1020.0 1019.9 0.0
19/10:30am 22.5 18.8 9.6 44 7.0 NNW 19 26 10 14 1020.5 1020.4 0.0
19/10:00am 21.6 20.0 10.1 48 6.2 N 9 17 5 9 1020.9 1020.8 0.0
19/09:30am 20.7 20.6 9.3 48 6.1 CALM 0 6 0 3 1021.4 1021.3 0.0
19/09:00am 19.2 17.8 8.8 51 5.4 WSW 6 13 3 7 1021.6 1021.5 0.0
19/08:30am 17.1 14.9 8.0 55 4.6 WSW 9 15 5 8 1021.7 1021.6 0.0
19/08:00am 15.9 13.8 8.2 60 3.9 WSW 9 15 5 8 1021.6 1021.5 0.0
19/07:30am 14.1 12.4 8.3 68 2.9 S 7 11 4 6 1021.6 1021.5 0.0
19/07:00am 12.0 10.3 8.3 78 1.8 S 7 9 4 5 1021.3 1021.2 0.0
19/06:30am 10.3 8.6 7.7 84 1.2 S 6 7 3 4 1020.7 1020.6 0.0
19/06:00am 9.6 8.3 7.5 87 1.0 SSE 4 7 2 4 1020.7 1020.6 0.0
19/05:30am 8.6 6.6 6.1 84 1.1 S 6 7 3 4 1020.5 1020.4 0.0
19/05:00am 8.6 6.5 5.9 83 1.2 SSE 6 7 3 4 1020.1 1020.0 0.0
19/04:30am 8.2 6.0 5.5 83 1.2 S 6 9 3 5 1019.6 1019.5 0.0
19/04:00am 8.7 6.8 6.5 86 1.0 S 6 7 3 4 1019.3 1019.2 0.0
19/03:30am 10.3 9.2 6.8 79 1.6 S 2 7 1 4 1019.1 1019.0 0.0
19/03:00am 10.0 8.1 6.9 81 1.5 S 6 7 3 4 1019.3 1019.2 0.0
19/02:30am 10.9 9.0 6.5 74 2.1 S 6 7 3 4 1019.3 1019.2 0.0
19/02:00am 11.1 9.0 6.6 74 2.1 S 7 9 4 5 1019.4 1019.3 0.0
19/01:30am 10.7 9.2 6.6 76 1.9 W 4 9 2 5 1019.6 1019.5 0.0
19/01:00am 12.3 8.5 7.6 73 2.3 S 17 19 9 10 1019.5 1019.4 0.0
19/12:30am 11.8 8.5 7.9 77 1.9 S 15 17 8 9 1019.8 1019.7 0.0
19/12:00am 12.6 9.8 8.5 76 2.0 S 13 15 7 8 1020.0 1019.9 0.0
 
Date/Time
EST
Temp
°C
App
Temp
°C
Dew
Point
Rel
Hum
%
Delta-T
°C
Wind Press
QNH
hPa
Press
MSL
hPa
Rain
since 9 am
mm
Dir
 
Spd
km/h
Gust
km/h
Spd
kts
Gust
kts
18/11:30pm 13.0 11.0 8.7 75 2.2 S 9 11 5 6 1020.0 1019.9 0.0
18/11:00pm 12.8 11.0 8.1 73 2.3 S 7 9 4 5 1020.0 1019.9 0.0
18/10:30pm 13.9 13.5 8.1 68 2.9 CALM 0 4 0 2 1019.8 1019.7 0.0
18/10:00pm 14.3 12.6 8.5 68 2.9 NNE 7 9 4 5 1019.9 1019.8 0.0
18/09:30pm 15.9 13.6 9.1 64 3.5 NE 11 13 6 7 1019.7 1019.6 0.0
18/09:00pm 16.3 14.0 9.0 62 3.7 NE 11 15 6 8 1019.6 1019.5 0.0
18/08:30pm 16.3 13.9 8.5 60 4.0 NE 11 13 6 7 1019.4 1019.3 0.0
18/08:00pm 16.4 14.3 8.1 58 4.2 NE 9 11 5 6 1019.2 1019.1 0.0
18/07:30pm 16.6 14.1 8.3 58 4.2 NE 11 13 6 7 1018.8 1018.7 0.0
18/07:00pm 16.5 13.7 8.7 60 4.0 NNE 13 17 7 9 1018.4 1018.3 0.0
18/06:30pm 16.7 13.7 7.9 56 4.4 NNE 13 17 7 9 1017.8 1017.7 0.0
18/06:00pm 17.3 14.2 7.1 51 5.1 NNE 13 17 7 9 1017.3 1017.2 0.0
18/05:30pm 20.5 16.2 7.2 42 6.8 NE 19 24 10 13 1016.8 1016.7 0.0
18/05:00pm 21.6 17.0 6.7 38 7.6 NE 20 30 11 16 1016.2 1016.1 0.0
18/04:30pm 22.4 16.4 5.4 33 8.5 NE 26 32 14 17 1015.7 1015.6 0.0
18/04:20pm 22.9 16.5 5.3 32 8.8 ENE 28 32 15 17 1015.4 1015.3 0.0
18/04:00pm 25.6 21.9 -2.9 15 12.5 SSE 7 11 4 6 1015.1 1015.0 0.0
18/03:30pm 26.3 23.0 -1.5 16 12.6 SW 6 11 3 6 1015.0 1014.9 0.0
18/03:00pm 26.5 21.7 -2.2 15 12.8 SW 13 20 7 11 1015.1 1015.0 0.0
18/02:30pm 26.3 22.1 -0.7 17 12.4 WSW 11 17 6 9 1015.2 1015.1 0.0
18/02:00pm 26.1 22.1 -2.5 15 12.7 NW 9 20 5 11 1015.4 1015.3 0.0
18/01:30pm 25.7 19.4 -1.2 17 12.2 W 22 33 12 18 1015.8 1015.7 0.0
18/01:00pm 25.6 21.4 -1.2 17 12.1 W 11 19 6 10 1016.2 1016.1 0.0
18/12:30pm 25.2 20.5 0.7 20 11.4 SW 15 20 8 11 1016.7 1016.6 0.0
18/12:00pm 24.3 18.7 -0.1 20 11.1 WSW 19 30 10 16 1017.1 1017.0 0.0
18/11:30am 24.4 18.3 0.7 21 11.0 SW 22 32 12 17 1017.8 1017.7 0.0
18/11:00am 24.2 19.3 1.8 23 10.6 SW 17 28 9 15 1018.2 1018.1 0.0
18/10:30am 23.4 18.0 1.1 23 10.3 SSW 19 33 10 18 1018.5 1018.4 0.0
18/10:00am 22.9 16.0 0.1 22 10.3 SSW 26 37 14 20 1018.9 1018.8 0.0
18/09:30am 23.0 16.7 1.4 24 10.0 SW 24 35 13 19 1019.2 1019.1 0.0
18/09:00am 21.8 17.7 2.0 27 9.2 WSW 13 20 7 11 1019.4 1019.3 0.0
18/08:30am 21.5 16.6 1.7 27 9.2 S 17 26 9 14 1019.5 1019.4 0.0
18/08:00am 19.0 16.3 3.6 36 7.2 SW 7 11 4 6 1019.5 1019.4 0.0
18/07:30am 17.0 14.7 5.6 47 5.5 WSW 7 9 4 5 1019.5 1019.4 0.0
18/07:00am 14.8 12.6 5.1 52 4.5 SW 6 7 3 4 1019.2 1019.1 0.0
18/06:30am 13.4 11.1 4.6 55 4.0 S 6 7 3 4 1018.8 1018.7 0.0
18/06:00am 12.9 11.2 4.1 55 4.0 S 2 7 1 4 1018.4 1018.3 0.0
18/05:30am 12.7 10.2 3.9 55 4.0 S 6 7 3 4 1017.9 1017.8 0.0
18/05:00am 12.3 10.6 4.0 57 3.7 S 2 7 1 4 1017.5 1017.4 0.0
18/04:30am 13.3 11.6 4.2 54 4.1 S 2 6 1 3 1017.0 1016.9 0.0
18/04:00am 11.7 9.2 3.7 58 3.5 E 6 9 3 5 1016.6 1016.5 0.0
18/03:30am 13.7 12.4 4.0 52 4.4 CALM 0 4 0 2 1016.3 1016.2 0.0
18/03:00am 13.5 12.1 3.3 50 4.6 CALM 0 0 0 0 1016.0 1015.9 0.0
18/02:30am 14.9 10.7 4.0 48 5.0 WSW 15 19 8 10 1015.7 1015.6 0.0
18/02:00am 14.7 10.2 4.4 50 4.8 WSW 17 19 9 10 1015.5 1015.4 0.0
18/01:30am 14.5 10.8 4.5 51 4.6 WSW 13 19 7 10 1015.5 1015.4 0.0
18/01:00am 14.5 11.7 5.0 53 4.4 WSW 9 13 5 7 1015.3 1015.2 0.0
18/12:30am 14.2 11.0 5.3 55 4.2 SSW 11 11 6 6 1015.1 1015.0 0.0
18/12:00am 13.6 10.9 5.5 58 3.8 SSW 9 11 5 6 1015.3 1015.2 0.0
 
Date/Time
EST
Temp
°C
App
Temp
°C
Dew
Point
Rel
Hum
%
Delta-T
°C
Wind Press
QNH
hPa
Press
MSL
hPa
Rain
since 9 am
mm
Dir
 
Spd
km/h
Gust
km/h
Spd
kts
Gust
kts
17/11:30pm 14.4 11.3 5.7 56 4.1 S 11 11 6 6 1015.2 1015.1 0.0
17/11:00pm 14.9 12.0 6.7 58 4.0 SSW 11 11 6 6 1015.1 1015.0 0.0
17/10:30pm 15.5 13.2 7.5 59 4.0 SSW 9 11 5 6 1015.0 1014.9 0.0
17/10:00pm 16.3 16.2 9.3 63 3.6 CALM 0 0 0 0 1015.0 1014.9 0.0
17/09:30pm 14.7 13.6 7.0 60 3.8 SW 2 6 1 3 1015.0 1014.9 0.0
17/09:00pm 18.2 17.7 9.5 57 4.6 NNE 2 6 1 3 1014.6 1014.5 0.0
17/08:30pm 18.0 17.7 8.6 54 4.9 CALM 0 0 0 0 1014.3 1014.2 0.0
17/08:00pm 18.8 18.5 8.5 51 5.3 CALM 0 0 0 0 1013.9 1013.8 0.0
17/07:30pm 18.5 16.8 8.2 51 5.3 N 7 9 4 5 1013.6 1013.5 0.0
17/07:00pm 19.7 17.0 5.7 40 6.9 NNE 9 13 5 7 1013.2 1013.1 0.0
17/06:30pm 23.0 18.0 -1.1 20 10.7 W 15 20 8 11 1012.6 1012.5 0.0
17/06:00pm 24.7 18.7 -1.2 18 11.6 WSW 20 28 11 15 1012.0 1011.9 0.0
17/05:30pm 26.3 19.5 -1.5 16 12.6 W 24 33 13 18 1011.4 1011.3 0.0
17/05:00pm 27.2 21.4 0.1 17 12.7 W 20 30 11 16 1010.9 1010.8 0.0
17/04:30pm 28.0 20.8 0.7 17 13.0 W 28 43 15 23 1010.7 1010.6 0.0
17/04:00pm 28.6 22.2 1.2 17 13.2 W 24 35 13 19 1010.5 1010.4 0.0
17/03:30pm 28.6 21.2 2.0 18 13.0 W 30 43 16 23 1010.4 1010.3 0.0
17/03:00pm 28.9 22.7 2.2 18 13.2 W 24 37 13 20 1010.5 1010.4 0.0
17/02:30pm 28.8 22.1 1.3 17 13.3 W 26 39 14 21 1010.7 1010.6 0.0
17/02:00pm 28.7 21.1 2.8 19 12.9 W 32 48 17 26 1010.9 1010.8 0.0
17/01:51pm 28.0 20.9 1.5 18 12.8 W 28 48 15 26 1011.1 1011.0 0.0
17/01:30pm 28.3 21.6 3.9 21 12.3 W 28 39 15 21 1011.6 1011.5 0.0
17/01:00pm 27.9 21.4 2.9 20 12.4 WSW 26 41 14 22 1012.1 1012.0 0.0
17/12:30pm 27.4 21.7 5.1 24 11.4 WSW 24 30 13 16 1012.6 1012.5 0.0
17/12:00pm 26.7 21.9 4.5 24 11.2 WSW 19 28 10 15 1013.1 1013.0 0.0
17/11:30am 26.5 19.7 3.1 22 11.5 WSW 28 39 15 21 1013.6 1013.5 0.0
17/11:00am 26.5 20.3 2.4 21 11.7 WSW 24 43 13 23 1014.2 1014.1 0.0
17/10:30am 25.5 20.3 3.5 24 10.8 WSW 20 32 11 17 1014.7 1014.6 0.0
17/10:00am 25.5 20.3 7.1 31 9.7 SW 24 33 13 18 1015.0 1014.9 0.0
17/09:30am 24.4 20.2 7.5 34 8.9 WSW 19 24 10 13 1015.3 1015.2 0.0
17/09:00am 23.3 19.9 9.0 40 7.7 WSW 17 22 9 12 1015.5 1015.4 0.0
17/08:30am 22.1 19.9 10.9 49 6.2 WSW 13 19 7 10 1015.5 1015.4 0.0
17/08:00am 19.8 19.0 11.8 60 4.4 SW 7 13 4 7 1015.3 1015.2 0.0
17/07:30am 17.3 18.2 12.8 75 2.5 CALM 0 6 0 3 1015.3 1015.2 0.0
17/07:00am 15.7 16.4 12.3 80 1.9 CALM 0 7 0 4 1015.0 1014.9 0.0
17/06:30am 14.5 15.4 12.9 90 0.9 CALM 0 0 0 0 1014.5 1014.4 0.0
17/06:00am 12.7 13.0 12.1 96 0.3 NNE 2 6 1 3 1014.1 1014.0 0.0
17/05:30am 11.5 11.7 10.7 95 0.4 CALM 0 0 0 0 1013.7 1013.6 0.0
17/05:15am 11.9 11.5 11.1 95 0.4 NE 4 7 2 4 1013.6 1013.5 0.0
17/05:00am 11.5 11.3 10.6 94 0.5 NNE 2 6 1 3 1013.5 1013.4 0.0
17/04:55am 11.6 11.8 10.7 94 0.5 CALM 0 0 0 0 1013.4 1013.3 0.0
17/04:30am 11.6 10.6 10.2 91 0.7 SE 6 7 3 4 1013.3 1013.2 0.0
17/04:00am 12.3 12.0 11.5 95 0.4 SSW 4 6 2 3 1013.1 1013.0 0.0
17/03:30am 12.6 11.9 11.5 93 0.6 S 6 7 3 4 1012.6 1012.5 0.0
17/03:00am 13.6 13.1 12.5 93 0.6 S 7 9 4 5 1012.4 1012.3 0.0
17/02:30am 14.1 13.6 12.8 92 0.7 S 7 9 4 5 1012.4 1012.3 0.0
17/02:00am 15.3 14.6 14.2 93 0.6 SSE 11 15 6 8 1012.7 1012.6 0.0
17/01:30am 15.5 15.6 13.9 90 0.9 SSE 6 11 3 6 1012.7 1012.6 0.0
17/01:00am 16.8 18.4 14.8 88 1.2 CALM 0 0 0 0 1012.8 1012.7 0.0
17/12:30am 16.8 17.2 14.8 88 1.2 NE 6 7 3 4 1012.9 1012.8 0.0
17/12:00am 16.9 16.3 14.7 87 1.3 NNE 11 13 6 7 1012.8 1012.7 0.0
 
Date/Time
EST
Temp
°C
App
Temp
°C
Dew
Point
Rel
Hum
%
Delta-T
°C
Wind Press
QNH
hPa
Press
MSL
hPa
Rain
since 9 am
mm
Dir
 
Spd
km/h
Gust
km/h
Spd
kts
Gust
kts
16/11:30pm 16.6 16.0 14.6 88 1.1 NNE 11 13 6 7 1013.0 1012.9 0.0
16/11:00pm 17.3 16.2 15.3 88 1.2 N 15 17 8 9 1013.0 1012.9 0.0
16/10:30pm 18.4 19.2 15.8 85 1.5 N 6 9 3 5 1013.1 1013.0 0.0
16/10:00pm 19.0 18.2 16.2 84 1.7 N 15 20 8 11 1012.7 1012.6 0.0
16/09:30pm 18.8 18.3 16.0 84 1.7 N 13 15 7 8 1012.6 1012.5 0.0
16/09:00pm 19.3 18.9 16.2 82 1.9 N 13 20 7 11 1012.6 1012.5 0.0
16/08:30pm 19.8 18.2 15.9 78 2.3 N 19 26 10 14 1012.6 1012.5 0.0
16/08:00pm 19.9 18.9 15.7 77 2.5 NNE 15 20 8 11 1012.2 1012.1 0.0
16/07:30pm 20.9 18.7 15.9 73 3.0 N 22 30 12 16 1012.7 1012.6 0.0
16/07:00pm 21.3 19.5 15.6 70 3.4 N 19 28 10 15 1012.4 1012.3 0.0
16/06:30pm 21.9 17.9 15.3 66 3.9 N 30 39 16 21 1011.5 1011.4 0.0
16/06:00pm 22.3 17.8 14.9 63 4.4 N 32 46 17 25 1011.1 1011.0 0.0
16/05:30pm 22.8 20.2 14.9 61 4.7 N 22 32 12 17 1011.2 1011.1 0.0
16/05:00pm 22.6 20.9 15.7 65 4.2 N 19 28 10 15 1010.4 1010.3 0.0
16/04:30pm 23.6 19.3 15.4 60 4.9 N 32 43 17 23 1010.5 1010.4 0.0
16/04:00pm 25.2 21.5 14.9 52 6.2 NNE 28 37 15 20 1010.4 1010.3 0.0
16/03:30pm 24.7 20.7 16.2 59 5.2 NNE 32 43 17 23 1010.5 1010.4 0.0
16/03:00pm 24.8 20.4 15.7 57 5.5 NNE 33 43 18 23 1010.7 1010.6 0.0
16/02:30pm 26.1 21.8 15.5 52 6.4 N 32 39 17 21 1010.9 1010.8 0.0
16/02:00pm 26.9 23.5 15.9 51 6.7 NNE 28 37 15 20 1011.2 1011.1 0.0

Other Formats:

Comma delimited format used in spreadsheet applications
http://www.bom.gov.au/fwo/IDQ60801/IDQ60801.94575.axf

JavaScript Object Notation format (JSON) in row-major order
http://www.bom.gov.au/fwo/IDQ60801/IDQ60801.94575.json